createdAt,value
2022-11-15T00:01:12.702Z,5.61
2022-11-15T00:03:39.033Z,5.20
2022-11-15T00:06:05.283Z,5.23
2022-11-15T00:08:31.532Z,5.06
2022-11-15T00:10:57.826Z,5.06
2022-11-15T00:13:24.053Z,4.88
2022-11-15T00:15:50.309Z,5.19
2022-11-15T00:18:16.565Z,5.18
2022-11-15T00:20:42.805Z,5.71
2022-11-15T00:23:09.064Z,5.98
2022-11-15T00:25:35.302Z,5.78
2022-11-15T00:28:01.613Z,6.19
2022-11-15T00:30:27.851Z,6.24
2022-11-15T00:32:54.096Z,6.10
2022-11-15T00:35:20.362Z,5.72
2022-11-15T00:37:46.596Z,6.33
2022-11-15T00:40:12.837Z,5.76
2022-11-15T00:42:39.092Z,5.57
2022-11-15T00:45:05.339Z,5.35
2022-11-15T00:47:31.655Z,5.30
2022-11-15T00:49:57.899Z,5.16
2022-11-15T00:52:24.160Z,5.23
2022-11-15T00:54:50.412Z,5.17
2022-11-15T00:57:16.660Z,5.18
2022-11-15T00:59:42.919Z,5.15
2022-11-15T01:02:09.160Z,5.15
2022-11-15T01:04:35.497Z,5.68
2022-11-15T01:07:01.818Z,5.12
2022-11-15T01:09:28.100Z,5.32
2022-11-15T01:11:54.348Z,4.74
2022-11-15T01:14:25.201Z,4.43
2022-11-15T01:16:51.850Z,4.32
2022-11-15T01:19:18.099Z,4.34
2022-11-15T01:21:44.345Z,4.06
2022-11-15T01:24:10.598Z,4.10
2022-11-15T01:26:36.838Z,4.21
2022-11-15T01:29:03.124Z,4.38
2022-11-15T01:31:29.367Z,4.16
2022-11-15T01:33:55.617Z,3.75
2022-11-15T01:36:21.846Z,3.90
2022-11-15T01:38:48.072Z,3.85
2022-11-15T01:41:14.358Z,3.85
2022-11-15T01:43:40.601Z,3.83
2022-11-15T01:46:06.874Z,3.89
2022-11-15T01:48:33.108Z,3.50
2022-11-15T01:50:59.347Z,3.52
2022-11-15T01:53:25.592Z,3.52
2022-11-15T01:55:51.831Z,3.85
2022-11-15T01:58:18.086Z,3.76
2022-11-15T02:00:44.386Z,3.83
2022-11-15T02:03:10.684Z,3.83
2022-11-15T02:05:36.957Z,3.69
2022-11-15T02:08:03.215Z,3.91
2022-11-15T02:10:29.445Z,4.14
2022-11-15T02:12:55.687Z,3.69
2022-11-15T02:15:21.924Z,3.87
2022-11-15T02:17:48.164Z,3.64
2022-11-15T02:20:14.407Z,3.70
2022-11-15T02:22:40.737Z,3.79
2022-11-15T02:25:06.972Z,3.84
2022-11-15T02:27:33.222Z,3.70
2022-11-15T02:29:59.467Z,3.97
2022-11-15T02:32:25.718Z,3.81
2022-11-15T02:34:51.975Z,3.77
2022-11-15T02:37:18.213Z,3.72
2022-11-15T02:39:44.470Z,3.65
2022-11-15T02:42:10.718Z,3.70
2022-11-15T02:44:36.958Z,3.50
2022-11-15T02:47:03.225Z,3.44
2022-11-15T02:49:29.475Z,3.31
2022-11-15T02:51:55.715Z,3.31
2022-11-15T02:54:21.969Z,2.99
2022-11-15T02:56:48.233Z,2.81
2022-11-15T02:59:14.465Z,3.01
2022-11-15T03:01:40.730Z,3.06
2022-11-15T03:04:06.982Z,3.06
2022-11-15T03:06:33.268Z,2.77
2022-11-15T03:08:59.511Z,2.69
2022-11-15T03:11:25.757Z,2.69
2022-11-15T03:13:52.004Z,2.77
2022-11-15T03:16:18.332Z,2.66
2022-11-15T03:18:44.592Z,2.64
2022-11-15T03:21:10.929Z,2.80
2022-11-15T03:23:37.177Z,2.66
2022-11-15T03:26:03.431Z,2.45
2022-11-15T03:28:29.670Z,2.44
2022-11-15T03:30:55.900Z,2.19
2022-11-15T03:33:22.142Z,2.31
2022-11-15T03:35:48.392Z,2.12
2022-11-15T03:38:14.703Z,2.15
2022-11-15T03:40:40.998Z,2.26
2022-11-15T03:43:07.296Z,2.15
2022-11-15T03:45:33.553Z,2.42
2022-11-15T03:47:59.801Z,2.43
2022-11-15T03:50:26.099Z,2.70
2022-11-15T03:52:52.333Z,2.46
2022-11-15T03:55:18.584Z,2.60
2022-11-15T03:57:44.826Z,2.64
2022-11-15T04:00:11.086Z,2.36
2022-11-15T04:02:37.324Z,2.46
2022-11-15T04:05:03.578Z,2.44
2022-11-15T04:07:29.871Z,2.52
2022-11-15T04:09:56.355Z,2.31
2022-11-15T04:12:22.618Z,2.40
2022-11-15T04:14:48.889Z,2.44
2022-11-15T04:17:15.146Z,2.37
2022-11-15T04:19:41.394Z,2.47
2022-11-15T04:22:07.635Z,2.44
2022-11-15T04:24:33.886Z,2.45
2022-11-15T04:27:00.129Z,2.47
2022-11-15T04:29:26.390Z,2.66
2022-11-15T04:31:52.628Z,2.52
2022-11-15T04:34:18.965Z,2.32
2022-11-15T04:36:45.234Z,2.73
2022-11-15T04:39:11.479Z,2.53
2022-11-15T04:41:37.717Z,2.75
2022-11-15T04:44:03.973Z,2.44
2022-11-15T04:46:30.212Z,2.53
2022-11-15T04:48:58.939Z,2.59
2022-11-15T04:51:25.680Z,3.34
2022-11-15T04:53:51.923Z,3.35
2022-11-15T04:56:18.175Z,3.60
2022-11-15T04:58:44.431Z,3.28
2022-11-15T05:01:10.696Z,3.04
2022-11-15T05:03:36.985Z,2.85
2022-11-15T05:06:03.234Z,3.14
2022-11-15T05:08:29.493Z,3.89
2022-11-15T05:10:55.736Z,3.70
2022-11-15T05:13:21.992Z,3.83
2022-11-15T05:15:48.243Z,3.49
2022-11-15T05:18:17.249Z,3.46
2022-11-15T05:20:48.084Z,3.61
2022-11-15T05:23:14.341Z,3.44
2022-11-15T05:25:40.603Z,3.72
2022-11-15T05:28:06.853Z,3.70
2022-11-15T05:30:33.197Z,3.75
2022-11-15T05:32:59.447Z,3.55
2022-11-15T05:35:25.679Z,3.16
2022-11-15T05:37:51.909Z,3.06
2022-11-15T05:40:18.170Z,3.64
2022-11-15T05:42:44.409Z,3.75
2022-11-15T05:45:10.683Z,3.81
2022-11-15T05:47:36.920Z,3.57
2022-11-15T05:50:03.157Z,3.42
2022-11-15T05:52:29.396Z,3.27
2022-11-15T05:54:55.633Z,3.27
2022-11-15T05:57:21.884Z,3.56
2022-11-15T05:59:48.141Z,3.33
2022-11-15T06:02:14.409Z,3.38
2022-11-15T06:04:40.683Z,3.46
2022-11-15T06:07:07.011Z,3.33
2022-11-15T06:09:33.301Z,3.28
2022-11-15T06:11:59.554Z,3.16
2022-11-15T06:14:25.802Z,3.14
2022-11-15T06:16:52.041Z,3.29
2022-11-15T06:19:18.291Z,3.49
2022-11-15T06:21:44.527Z,3.67
2022-11-15T06:24:10.801Z,3.68
2022-11-15T06:26:37.057Z,3.76
2022-11-15T06:29:03.308Z,3.78
2022-11-15T06:31:29.559Z,3.93
2022-11-15T06:33:55.809Z,3.93
2022-11-15T06:36:22.067Z,4.44
2022-11-15T06:38:48.322Z,4.29
2022-11-15T06:41:14.565Z,4.41
2022-11-15T06:43:40.812Z,4.77
2022-11-15T06:46:07.076Z,4.66
2022-11-15T06:48:33.315Z,4.81
2022-11-15T06:50:59.605Z,4.88
2022-11-15T06:53:25.864Z,4.65
2022-11-15T06:55:55.259Z,5.56
2022-11-15T06:58:21.970Z,5.72
2022-11-15T07:00:48.287Z,6.00
2022-11-15T07:03:14.606Z,6.18
2022-11-15T07:05:40.860Z,5.70
2022-11-15T07:08:07.124Z,5.80
2022-11-15T07:10:33.375Z,5.94
2022-11-15T07:12:59.613Z,6.23
2022-11-15T07:15:25.885Z,5.87
2022-11-15T07:17:52.145Z,5.87
2022-11-15T07:20:18.399Z,5.90
2022-11-15T07:22:44.638Z,5.65
2022-11-15T07:25:10.888Z,5.28
2022-11-15T07:27:37.139Z,5.08
2022-11-15T07:30:03.384Z,7.14
2022-11-15T07:32:29.629Z,12.67
2022-11-15T07:34:55.878Z,11.61
2022-11-15T07:37:22.146Z,11.05
2022-11-15T07:39:48.416Z,9.72
2022-11-15T07:42:14.658Z,9.85
2022-11-15T07:44:40.911Z,9.51
2022-11-15T07:47:07.156Z,8.53
2022-11-15T07:49:33.424Z,7.69
2022-11-15T07:51:59.681Z,7.29
2022-11-15T07:54:25.915Z,7.75
2022-11-15T07:56:52.160Z,7.70
2022-11-15T07:59:18.439Z,7.58
2022-11-15T08:01:44.838Z,6.90
2022-11-15T08:04:11.228Z,7.69
2022-11-15T08:06:37.486Z,7.70
2022-11-15T08:09:03.760Z,7.69
2022-11-15T08:11:30.015Z,7.60
2022-11-15T08:13:56.266Z,7.10
2022-11-15T08:16:22.541Z,7.18
2022-11-15T08:18:48.801Z,6.75
2022-11-15T08:21:18.302Z,6.74
2022-11-15T08:23:44.772Z,6.64
2022-11-15T08:26:11.014Z,6.53
2022-11-15T08:28:37.265Z,6.32
2022-11-15T08:31:03.598Z,6.09
2022-11-15T08:33:30.180Z,6.65
2022-11-15T08:35:56.673Z,6.31
2022-11-15T08:38:22.940Z,6.01
2022-11-15T08:40:49.190Z,6.23
2022-11-15T08:43:15.426Z,5.56
2022-11-15T08:45:41.684Z,5.23
2022-11-15T08:48:07.935Z,4.75
2022-11-15T08:50:34.190Z,4.24
2022-11-15T08:53:00.434Z,3.64
2022-11-15T08:55:26.665Z,4.17
2022-11-15T08:57:52.913Z,3.75
2022-11-15T09:00:19.150Z,3.79
2022-11-15T09:02:45.411Z,3.51
2022-11-15T09:05:11.675Z,3.32
2022-11-15T09:07:37.922Z,3.48
2022-11-15T09:10:04.165Z,2.97
2022-11-15T09:12:30.393Z,2.96
2022-11-15T09:14:56.639Z,3.02
2022-11-15T09:17:25.034Z,2.90
2022-11-15T09:19:51.541Z,2.82
2022-11-15T09:22:17.785Z,3.73
2022-11-15T09:24:44.027Z,5.66
2022-11-15T09:27:10.291Z,6.14
2022-11-15T09:29:36.533Z,6.06
2022-11-15T09:32:02.789Z,6.14
2022-11-15T09:34:29.088Z,6.21
2022-11-15T09:36:55.448Z,6.21
2022-11-15T09:39:21.705Z,6.41
2022-11-15T09:41:48.034Z,6.81
2022-11-15T09:44:14.285Z,6.86
2022-11-15T09:46:40.612Z,7.23
2022-11-15T09:49:06.875Z,7.84
2022-11-15T09:51:33.139Z,8.15
2022-11-15T09:56:45.605Z,9.09
2022-11-15T09:59:11.888Z,10.39
2022-11-15T10:01:38.193Z,10.25
2022-11-15T10:04:07.824Z,10.36
2022-11-15T10:06:36.956Z,10.46
2022-11-15T10:09:03.207Z,10.33
2022-11-15T10:11:37.396Z,10.82
2022-11-15T10:14:04.680Z,12.22
2022-11-15T10:16:30.969Z,12.34
2022-11-15T10:18:57.219Z,13.04
2022-11-15T10:21:23.457Z,12.34
2022-11-15T10:23:49.697Z,12.83
2022-11-15T10:26:15.973Z,12.96
2022-11-15T10:28:42.219Z,13.21
2022-11-15T10:31:11.926Z,13.15
2022-11-15T10:33:40.568Z,13.97
2022-11-15T10:36:06.894Z,14.11
2022-11-15T10:38:33.688Z,14.17
2022-11-15T10:41:00.165Z,14.27
2022-11-15T10:43:26.439Z,14.61
2022-11-15T10:45:52.718Z,14.88
2022-11-15T10:48:18.998Z,15.57
2022-11-15T10:50:45.241Z,16.08
2022-11-15T10:53:11.493Z,16.08
2022-11-15T10:55:37.878Z,16.87
2022-11-15T10:58:04.179Z,16.98
2022-11-15T11:00:30.456Z,16.57
2022-11-15T11:02:57.141Z,17.04
2022-11-15T11:05:23.389Z,17.51
2022-11-15T11:07:49.650Z,17.33
2022-11-15T11:10:36.550Z,16.01
2022-11-15T11:13:02.120Z,15.95
2022-11-15T11:15:28.384Z,16.78
2022-11-15T11:17:54.646Z,16.29
2022-11-15T11:20:20.928Z,15.99
2022-11-15T11:22:47.220Z,16.22
2022-11-15T11:25:13.462Z,15.68
2022-11-15T11:27:39.780Z,15.11
2022-11-15T11:30:06.024Z,14.70
2022-11-15T11:32:32.295Z,16.08
2022-11-15T11:34:58.599Z,15.12
2022-11-15T11:37:24.872Z,15.19
2022-11-15T11:39:51.128Z,15.03
2022-11-15T11:42:17.369Z,15.32
2022-11-15T11:44:43.621Z,14.98
2022-11-15T11:47:09.906Z,15.23
2022-11-15T11:49:36.153Z,15.42
2022-11-15T11:52:02.417Z,15.34
2022-11-15T11:54:28.683Z,15.07
2022-11-15T11:56:54.947Z,14.28
2022-11-15T11:59:21.209Z,15.13
2022-11-15T12:01:47.578Z,14.67
2022-11-15T12:04:13.933Z,14.54
2022-11-15T12:06:40.197Z,14.55
2022-11-15T12:09:06.453Z,15.00
2022-11-15T12:11:32.698Z,14.84
2022-11-15T12:13:58.968Z,13.92
2022-11-15T12:16:25.350Z,14.09
2022-11-15T12:18:51.659Z,13.14
2022-11-15T12:21:17.907Z,12.43
2022-11-15T12:23:44.318Z,12.91
2022-11-15T12:26:10.568Z,12.88
2022-11-15T12:28:36.813Z,12.37
2022-11-15T12:31:03.086Z,12.33
2022-11-15T12:33:29.338Z,12.20
2022-11-15T12:35:55.588Z,12.38
2022-11-15T12:38:21.871Z,12.45
2022-11-15T12:40:48.105Z,11.98
2022-11-15T12:43:14.363Z,12.14
2022-11-15T12:45:40.630Z,11.91
2022-11-15T12:48:06.886Z,12.96
2022-11-15T12:50:33.135Z,11.70
2022-11-15T12:52:59.399Z,11.31
2022-11-15T12:55:25.655Z,11.88
2022-11-15T12:57:51.892Z,11.34
2022-11-15T13:00:21.554Z,12.13
2022-11-15T13:02:51.322Z,12.64
2022-11-15T13:05:17.578Z,13.50
2022-11-15T13:07:43.981Z,13.06
2022-11-15T13:10:10.346Z,13.50
2022-11-15T13:12:36.652Z,13.70
2022-11-15T13:15:02.895Z,14.08
2022-11-15T13:17:29.177Z,15.20
2022-11-15T13:19:55.435Z,14.37
2022-11-15T13:22:21.736Z,13.90
2022-11-15T13:24:47.996Z,13.90
2022-11-15T13:27:14.239Z,14.19
2022-11-15T13:29:40.493Z,14.10
2022-11-15T13:32:06.746Z,14.45
2022-11-15T13:37:19.225Z,13.75
2022-11-15T13:39:45.489Z,13.88
2022-11-15T13:42:11.749Z,14.81
2022-11-15T13:44:38.089Z,14.54
2022-11-15T13:47:04.332Z,14.75
2022-11-15T13:49:30.579Z,15.57
2022-11-15T13:51:56.844Z,15.07
2022-11-15T13:54:23.139Z,13.60
2022-11-15T13:56:49.414Z,12.18
2022-11-15T13:59:15.680Z,12.01
2022-11-15T14:01:41.981Z,12.22
2022-11-15T14:04:08.275Z,11.63
2022-11-15T14:06:34.518Z,11.56
2022-11-15T14:09:00.831Z,11.37
2022-11-15T14:11:27.125Z,11.12
2022-11-15T14:13:53.367Z,11.81
2022-11-15T14:16:19.612Z,11.90
2022-11-15T14:18:46.049Z,11.87
2022-11-15T14:21:12.324Z,11.57
2022-11-15T14:23:38.595Z,11.32
2022-11-15T14:26:11.267Z,11.57
2022-11-15T14:28:38.194Z,10.98
2022-11-15T14:31:04.450Z,11.49
2022-11-15T14:33:30.698Z,11.21
2022-11-15T14:35:56.954Z,11.11
2022-11-15T14:38:23.227Z,11.15
2022-11-15T14:40:49.465Z,11.09
2022-11-15T14:43:15.725Z,10.78
2022-11-15T14:45:41.965Z,11.16
2022-11-15T14:48:08.232Z,11.43
2022-11-15T14:50:34.485Z,15.94
2022-11-15T14:53:00.726Z,16.95
2022-11-15T14:55:27.070Z,14.42
2022-11-15T14:57:53.318Z,12.25
2022-11-15T15:00:19.565Z,11.97
2022-11-15T15:02:45.854Z,11.39
2022-11-15T15:05:12.179Z,11.47
2022-11-15T15:07:38.536Z,10.75
2022-11-15T15:10:37.750Z,10.98
2022-11-15T15:12:51.154Z,11.23
2022-11-15T15:15:17.394Z,11.41
2022-11-15T15:17:43.638Z,13.17
2022-11-15T15:20:09.899Z,13.76
2022-11-15T15:22:36.150Z,14.70
2022-11-15T15:25:02.459Z,15.68
2022-11-15T15:27:28.739Z,16.26
2022-11-15T15:29:55.002Z,15.06
2022-11-15T15:32:21.261Z,13.54
2022-11-15T15:34:47.531Z,13.23
2022-11-15T15:37:13.798Z,12.93
2022-11-15T15:39:40.077Z,12.07
2022-11-15T15:42:06.325Z,12.35
2022-11-15T15:44:32.569Z,12.83
2022-11-15T15:46:58.841Z,11.88
2022-11-15T15:49:25.101Z,12.02
2022-11-15T15:51:51.368Z,11.81
2022-11-15T15:54:17.626Z,12.18
2022-11-15T15:56:43.895Z,12.35
2022-11-15T15:59:10.170Z,12.55
2022-11-15T16:01:36.441Z,12.57
2022-11-15T16:04:02.734Z,12.64
2022-11-15T16:06:29.043Z,11.37
2022-11-15T16:09:14.207Z,11.26
2022-11-15T16:11:41.680Z,11.71
2022-11-15T16:14:07.971Z,11.55
2022-11-15T16:16:34.218Z,12.10
2022-11-15T16:19:00.486Z,12.61
2022-11-15T16:21:26.739Z,11.32
2022-11-15T16:23:53.112Z,10.69
2022-11-15T16:26:19.394Z,10.52
2022-11-15T16:28:45.652Z,10.32
2022-11-15T16:31:11.922Z,10.18
2022-11-15T16:33:38.276Z,9.18
2022-11-15T16:36:04.515Z,9.68
2022-11-15T16:38:31.130Z,10.05
2022-11-15T16:40:57.555Z,9.72
2022-11-15T16:43:23.802Z,10.39
2022-11-15T16:45:50.164Z,10.35
2022-11-15T16:48:16.416Z,10.54
2022-11-15T16:50:42.680Z,10.27
2022-11-15T16:53:08.951Z,10.44
2022-11-15T16:55:35.198Z,9.90
2022-11-15T16:58:01.458Z,9.61
2022-11-15T17:00:27.752Z,10.65
2022-11-15T17:02:54.033Z,10.37
2022-11-15T17:05:20.512Z,10.28
2022-11-15T17:07:46.802Z,10.65
2022-11-15T17:10:13.061Z,10.88
2022-11-15T17:12:39.371Z,10.90
2022-11-15T17:15:05.661Z,11.55
2022-11-15T17:17:31.977Z,10.99
2022-11-15T17:19:58.236Z,11.39
2022-11-15T17:22:24.521Z,11.44
2022-11-15T17:24:50.776Z,11.28
2022-11-15T17:27:17.023Z,11.58
2022-11-15T17:29:43.282Z,11.72
2022-11-15T17:32:09.672Z,12.17
2022-11-15T17:34:38.402Z,11.98
2022-11-15T17:37:05.042Z,12.03
2022-11-15T17:39:31.471Z,12.16
2022-11-15T17:41:57.995Z,12.11
2022-11-15T17:44:24.278Z,12.72
2022-11-15T17:46:50.524Z,12.75
2022-11-15T17:49:16.765Z,12.78
2022-11-15T17:51:46.203Z,12.31
2022-11-15T17:54:16.080Z,13.11
2022-11-15T17:56:42.454Z,13.45
2022-11-15T17:59:13.765Z,13.66
2022-11-15T18:01:41.229Z,13.53
2022-11-15T18:04:07.502Z,13.87
2022-11-15T18:06:33.764Z,13.51
2022-11-15T18:09:00.019Z,14.50
2022-11-15T18:11:26.298Z,14.38
2022-11-15T18:13:52.785Z,14.67
2022-11-15T18:16:19.191Z,14.20
2022-11-15T18:18:45.515Z,15.73
2022-11-15T18:21:11.901Z,15.72
2022-11-15T18:23:38.239Z,15.60
2022-11-15T18:26:04.494Z,15.03
2022-11-15T18:28:31.077Z,14.84
2022-11-15T18:30:57.622Z,15.45
2022-11-15T18:33:23.886Z,14.99
2022-11-15T18:35:50.143Z,15.27
2022-11-15T18:38:16.404Z,14.98
2022-11-15T18:40:42.684Z,15.03
2022-11-15T18:43:08.970Z,15.06
2022-11-15T18:45:35.252Z,15.37
2022-11-15T18:48:01.603Z,14.40
2022-11-15T18:50:27.885Z,14.86
2022-11-15T18:52:54.156Z,14.24
2022-11-15T18:55:20.419Z,14.46
2022-11-15T18:57:46.669Z,14.83
2022-11-15T19:00:12.965Z,15.17
2022-11-15T19:02:39.229Z,16.15
2022-11-15T19:05:05.511Z,15.69
2022-11-15T19:07:31.857Z,15.74
2022-11-15T19:09:58.179Z,15.85
2022-11-15T19:12:24.530Z,15.46
2022-11-15T19:14:50.788Z,15.83
2022-11-15T19:17:17.045Z,15.96
2022-11-15T19:19:43.331Z,16.09
2022-11-15T19:22:09.628Z,16.20
2022-11-15T19:24:35.907Z,16.51
2022-11-15T19:27:02.279Z,16.39
2022-11-15T19:29:28.676Z,17.00
2022-11-15T19:31:54.922Z,15.35
2022-11-15T19:34:21.184Z,15.67
2022-11-15T19:36:47.450Z,14.64
2022-11-15T19:39:13.713Z,14.91
2022-11-15T19:41:40.058Z,15.00
2022-11-15T19:44:06.313Z,15.99
2022-11-15T19:46:32.564Z,16.33
2022-11-15T19:48:58.820Z,17.31
2022-11-15T19:51:25.086Z,16.77
2022-11-15T19:53:51.345Z,17.01
2022-11-15T19:56:17.617Z,17.16
2022-11-15T19:58:43.894Z,17.53
2022-11-15T20:01:10.294Z,17.85
2022-11-15T20:03:36.900Z,17.61
2022-11-15T20:06:03.278Z,15.81
2022-11-15T20:08:29.546Z,17.21
2022-11-15T20:10:55.811Z,16.05
2022-11-15T20:13:22.085Z,16.62
2022-11-15T20:15:48.348Z,16.04
2022-11-15T20:18:14.632Z,16.40
2022-11-15T20:20:40.889Z,17.76
2022-11-15T20:23:07.184Z,17.58
2022-11-15T20:25:33.492Z,19.12
2022-11-15T20:27:59.762Z,18.38
2022-11-15T20:30:26.035Z,17.63
2022-11-15T20:32:52.333Z,18.22
2022-11-15T20:35:18.617Z,18.94
2022-11-15T20:37:45.331Z,19.69
2022-11-15T20:40:11.588Z,19.11
2022-11-15T20:42:37.901Z,17.42
2022-11-15T20:45:04.233Z,17.43
2022-11-15T20:47:30.493Z,18.37
2022-11-15T20:49:58.477Z,18.80
2022-11-15T20:52:32.150Z,16.93
2022-11-15T20:54:58.410Z,17.68
2022-11-15T20:57:24.649Z,16.87
2022-11-15T20:59:50.897Z,17.56
2022-11-15T21:02:17.261Z,17.37
2022-11-15T21:04:43.585Z,18.02
2022-11-15T21:07:09.879Z,17.60
2022-11-15T21:09:36.246Z,18.06
2022-11-15T21:12:02.515Z,18.50
2022-11-15T21:14:29.046Z,19.38
2022-11-15T21:16:55.312Z,20.16
2022-11-15T21:19:25.826Z,19.32
2022-11-15T21:21:55.149Z,19.05
2022-11-15T21:24:21.519Z,20.54
2022-11-15T21:26:47.773Z,19.26
2022-11-15T21:29:14.047Z,19.35
2022-11-15T21:31:40.494Z,19.42
2022-11-15T21:34:06.751Z,19.04
2022-11-15T21:36:33.095Z,19.96
2022-11-15T21:38:59.371Z,19.69
2022-11-15T21:41:25.675Z,19.51
2022-11-15T21:43:51.955Z,19.15
2022-11-15T21:46:18.212Z,20.04
2022-11-15T21:48:44.491Z,18.86
2022-11-15T21:51:10.729Z,18.52
2022-11-15T21:53:37.000Z,19.55
2022-11-15T21:56:03.292Z,19.55
2022-11-15T21:58:29.553Z,19.59
2022-11-15T22:00:55.887Z,20.24
2022-11-15T22:03:22.175Z,20.02
2022-11-15T22:05:48.422Z,20.45
2022-11-15T22:08:14.740Z,18.89
2022-11-15T22:10:40.995Z,19.93
2022-11-15T22:13:07.251Z,19.36
2022-11-15T22:15:33.510Z,19.12
2022-11-15T22:17:59.781Z,20.40
2022-11-15T22:23:12.403Z,18.81
2022-11-15T22:25:38.657Z,18.71
2022-11-15T22:28:04.915Z,19.39
2022-11-15T22:30:31.381Z,18.52
2022-11-15T22:32:57.640Z,19.10
2022-11-15T22:35:23.886Z,18.56
2022-11-15T22:37:50.271Z,18.70
2022-11-15T22:40:16.520Z,18.88
2022-11-15T22:42:42.757Z,18.69
2022-11-15T22:45:09.067Z,19.41
2022-11-15T22:47:35.307Z,18.62
2022-11-15T22:50:01.567Z,18.13
2022-11-15T22:52:27.837Z,17.74
2022-11-15T22:54:54.139Z,17.85
2022-11-15T22:57:20.407Z,18.26
2022-11-15T22:59:46.666Z,21.98
2022-11-15T23:02:12.934Z,29.21
2022-11-15T23:04:39.290Z,31.37
2022-11-15T23:07:06.528Z,27.79
2022-11-15T23:09:32.854Z,23.01
2022-11-15T23:11:59.110Z,21.11
2022-11-15T23:14:25.366Z,19.79
2022-11-15T23:16:51.618Z,18.54
2022-11-15T23:19:17.862Z,17.04
2022-11-15T23:21:44.130Z,15.51
2022-11-15T23:24:10.414Z,15.57
2022-11-15T23:26:36.661Z,15.72
2022-11-15T23:29:02.915Z,17.05
2022-11-15T23:31:29.167Z,16.58
2022-11-15T23:33:55.431Z,16.21
2022-11-15T23:36:21.689Z,15.58
2022-11-15T23:38:48.046Z,15.88
2022-11-15T23:41:14.468Z,17.46
2022-11-15T23:43:40.715Z,17.35
2022-11-15T23:46:06.976Z,17.88
2022-11-15T23:48:33.375Z,17.89
2022-11-15T23:50:59.765Z,17.70
2022-11-15T23:53:26.021Z,17.33
2022-11-15T23:55:52.275Z,17.31
2022-11-15T23:58:18.531Z,16.91
